Thompsonville, Connecticut
Current Conditions -  °F | °C
As of 8:51 PM on Saturday 20 Dec 2014 (Local Time) from KBDL Reporting Station
Overcast Overcast  
Wind Chill: 24°   Ceiling: 4000
Heat Index: 32°   Visibility: 10mi
Dew Point: 22°   Wind: 9mph
Humidity: 66%   Direction: 20°NNE
Pressure: 30.27"   Gusts: NA
Location:  41.9843°N, 72.5534°W
Report Text: KBDL 210151Z 02008KT 10SM OVC040 00/M06 A3027 RMK AO2 SLP252 T00001056 $
Loading
Personal Weather Stations






























Interactive Weather Map New forecast layout! Learn more

10-Day Weather Forecast

Advertisements
Track Severe Weather on mobile